createdAt,value
2017-10-19T00:01:28.515Z,113.40
2017-10-19T00:03:56.027Z,111.47
2017-10-19T00:06:24.581Z,111.10
2017-10-19T00:08:52.437Z,103.20
2017-10-19T00:11:19.979Z,115.83
2017-10-19T00:13:47.537Z,113.80
2017-10-19T00:16:15.685Z,114.07
2017-10-19T00:18:43.256Z,118.70
2017-10-19T00:21:10.787Z,105.03
2017-10-19T00:23:39.101Z,119.20
2017-10-19T00:26:06.646Z,111.30
2017-10-19T00:28:34.177Z,107.93
2017-10-19T00:31:01.998Z,106.37
2017-10-19T00:33:30.407Z,115.80
2017-10-19T00:35:57.941Z,109.07
2017-10-19T00:38:25.516Z,117.93
2017-10-19T00:40:53.064Z,130.90
2017-10-19T00:43:20.651Z,129.73
2017-10-19T00:45:48.175Z,119.87
2017-10-19T00:48:15.736Z,112.00
2017-10-19T00:50:43.402Z,119.17
2017-10-19T00:53:11.721Z,106.27
2017-10-19T00:55:39.299Z,104.77
2017-10-19T00:58:10.320Z,112.00
2017-10-19T01:00:37.869Z,117.53
2017-10-19T01:03:05.426Z,110.73
2017-10-19T01:05:32.946Z,96.67
2017-10-19T01:08:00.759Z,97.37
2017-10-19T01:10:28.294Z,110.40
2017-10-19T01:12:55.828Z,108.20
2017-10-19T01:15:23.384Z,115.27
2017-10-19T01:17:51.688Z,114.83
2017-10-19T01:20:19.399Z,110.30
2017-10-19T01:22:46.918Z,103.07
2017-10-19T01:25:14.427Z,102.63
2017-10-19T01:27:42.018Z,108.60
2017-10-19T01:30:09.553Z,103.03
2017-10-19T01:32:38.193Z,105.43
2017-10-19T01:35:05.724Z,109.33
2017-10-19T01:37:33.267Z,118.93
2017-10-19T01:40:01.592Z,116.73
2017-10-19T01:42:29.109Z,119.87
2017-10-19T01:44:57.446Z,117.03
2017-10-19T01:47:24.974Z,115.50
2017-10-19T01:49:59.487Z,119.03
2017-10-19T01:52:26.994Z,115.57
2017-10-19T01:54:54.509Z,115.47
2017-10-19T01:57:22.040Z,108.53
2017-10-19T01:59:50.348Z,128.33
2017-10-19T02:02:18.219Z,133.20
2017-10-19T02:04:45.738Z,117.43
2017-10-19T02:07:13.273Z,116.50
2017-10-19T02:09:40.810Z,124.47
2017-10-19T02:12:08.325Z,121.23
2017-10-19T02:14:36.711Z,142.73
2017-10-19T02:17:04.994Z,137.37
2017-10-19T02:19:33.260Z,138.13
2017-10-19T02:22:01.618Z,142.60
2017-10-19T02:24:29.128Z,144.30
2017-10-19T02:26:58.940Z,145.07
2017-10-19T02:29:26.455Z,151.53
2017-10-19T02:31:54.760Z,146.13
2017-10-19T02:34:23.081Z,148.60
2017-10-19T02:36:50.606Z,154.87
2017-10-19T02:39:18.153Z,165.63
2017-10-19T02:41:46.438Z,146.97
2017-10-19T02:44:13.958Z,158.10
2017-10-19T02:46:41.513Z,157.00
2017-10-19T02:49:09.022Z,138.50
2017-10-19T02:51:36.562Z,156.43
2017-10-19T02:54:04.845Z,136.87
2017-10-19T02:56:33.119Z,144.23
2017-10-19T02:59:01.434Z,155.43
2017-10-19T03:01:28.950Z,167.23
2017-10-19T03:03:57.527Z,149.63
2017-10-19T03:06:25.046Z,154.90
2017-10-19T03:08:52.565Z,143.30
2017-10-19T03:11:20.874Z,149.40
2017-10-19T03:13:48.400Z,140.13
2017-10-19T03:16:16.978Z,153.30
2017-10-19T03:18:45.261Z,133.17
2017-10-19T03:21:13.562Z,144.70
2017-10-19T03:23:41.103Z,139.67
2017-10-19T03:26:09.391Z,160.60
2017-10-19T03:28:37.197Z,144.73
2017-10-19T03:31:04.698Z,139.77
2017-10-19T03:33:32.982Z,142.07
2017-10-19T03:36:01.297Z,137.93
2017-10-19T03:38:28.808Z,149.80
2017-10-19T03:40:57.237Z,143.90
2017-10-19T03:43:24.775Z,142.37
2017-10-19T03:45:52.296Z,137.63
2017-10-19T03:48:19.865Z,147.90
2017-10-19T03:50:47.374Z,134.70
2017-10-19T03:53:15.278Z,144.07
2017-10-19T03:55:42.795Z,140.27
2017-10-19T03:58:10.309Z,136.83
2017-10-19T04:00:38.663Z,144.27
2017-10-19T04:03:06.171Z,138.90
2017-10-19T04:05:34.759Z,138.13
2017-10-19T04:08:03.041Z,136.70
2017-10-19T04:10:30.573Z,144.33
2017-10-19T04:12:58.121Z,136.30
2017-10-19T04:15:25.635Z,131.00
2017-10-19T04:17:53.184Z,138.43
2017-10-19T04:20:20.709Z,146.97
2017-10-19T04:22:48.216Z,134.43
2017-10-19T04:25:16.804Z,124.93
2017-10-19T04:27:44.344Z,135.20
2017-10-19T04:30:12.230Z,125.33
2017-10-19T04:32:39.757Z,132.67
2017-10-19T04:35:08.040Z,118.83
2017-10-19T04:37:35.594Z,128.53
2017-10-19T04:40:03.879Z,118.57
2017-10-19T04:42:32.452Z,115.73
2017-10-19T04:45:00.743Z,126.07
2017-10-19T04:47:28.972Z,114.07
2017-10-19T04:49:56.508Z,136.73
2017-10-19T04:52:24.021Z,131.63
2017-10-19T04:54:51.573Z,135.13
2017-10-19T04:57:19.105Z,123.50
2017-10-19T04:59:46.620Z,122.47
2017-10-19T05:02:14.951Z,134.30
2017-10-19T05:04:42.474Z,116.10
2017-10-19T05:07:10.276Z,120.60
2017-10-19T05:09:37.905Z,109.20
2017-10-19T05:12:05.415Z,116.33
2017-10-19T05:14:33.601Z,112.77
2017-10-19T05:17:01.679Z,110.00
2017-10-19T05:19:30.292Z,109.27
2017-10-19T05:21:59.582Z,109.60
2017-10-19T05:24:28.195Z,107.03
2017-10-19T05:26:58.348Z,99.33
2017-10-19T05:29:27.671Z,100.70
2017-10-19T05:31:56.171Z,111.43
2017-10-19T05:34:24.487Z,101.20
2017-10-19T05:36:53.558Z,109.70
2017-10-19T05:39:21.237Z,107.30
2017-10-19T05:41:48.782Z,108.73
2017-10-19T05:44:16.344Z,90.97
2017-10-19T05:46:43.871Z,101.60
2017-10-19T05:49:12.342Z,105.83
2017-10-19T05:51:40.200Z,97.90
2017-10-19T05:54:07.748Z,104.07
2017-10-19T05:56:35.586Z,104.43
2017-10-19T05:59:03.105Z,91.63
2017-10-19T06:01:30.638Z,93.80
2017-10-19T06:03:58.193Z,95.37
2017-10-19T06:06:25.697Z,108.10
2017-10-19T06:08:54.041Z,91.17
2017-10-19T06:11:21.548Z,93.97
2017-10-19T06:13:49.834Z,94.40
2017-10-19T06:16:17.386Z,93.90
2017-10-19T06:18:45.677Z,90.87
2017-10-19T06:21:15.124Z,95.30
2017-10-19T06:23:44.157Z,94.80
2017-10-19T06:31:40.551Z,85.17
2017-10-19T06:34:08.498Z,97.20
2017-10-19T06:36:36.773Z,85.43
2017-10-19T06:39:05.056Z,88.47
2017-10-19T06:41:33.378Z,86.80
2017-10-19T06:44:00.898Z,83.50
2017-10-19T06:46:29.506Z,97.60
2017-10-19T06:48:57.028Z,99.17
2017-10-19T06:51:25.311Z,91.40
2017-10-19T06:53:54.175Z,89.07
2017-10-19T06:56:21.686Z,97.97
2017-10-19T06:58:49.225Z,75.23
2017-10-19T07:01:17.515Z,76.67
2017-10-19T07:03:45.819Z,83.13
2017-10-19T07:06:13.376Z,73.43
2017-10-19T07:08:40.895Z,77.80
2017-10-19T07:11:09.213Z,77.13
2017-10-19T07:13:36.738Z,74.73
2017-10-19T07:16:05.024Z,78.00
2017-10-19T07:18:33.330Z,69.50
2017-10-19T07:21:00.842Z,78.33
2017-10-19T07:23:28.659Z,73.87
2017-10-19T07:25:56.181Z,66.23
2017-10-19T07:28:24.471Z,79.67
2017-10-19T07:30:52.792Z,80.90
2017-10-19T07:33:20.333Z,73.37
2017-10-19T07:35:48.145Z,75.10
2017-10-19T07:38:15.660Z,74.80
2017-10-19T07:40:43.173Z,67.70
2017-10-19T07:43:11.533Z,58.60
2017-10-19T07:45:39.062Z,64.10
2017-10-19T07:48:06.603Z,66.23
2017-10-19T07:50:34.124Z,66.83
2017-10-19T07:53:01.689Z,70.93
2017-10-19T07:55:29.234Z,61.33
2017-10-19T07:57:56.761Z,59.97
2017-10-19T08:00:24.629Z,66.40
2017-10-19T08:02:52.151Z,64.17
2017-10-19T08:05:20.422Z,63.53
2017-10-19T08:07:48.828Z,66.10
2017-10-19T08:10:16.339Z,67.77
2017-10-19T08:12:43.911Z,67.87
2017-10-19T08:15:11.450Z,68.20
2017-10-19T08:17:38.991Z,57.93
2017-10-19T08:20:06.548Z,59.80
2017-10-19T08:22:34.094Z,59.80
2017-10-19T08:25:01.642Z,60.80
2017-10-19T08:27:29.167Z,63.60
2017-10-19T08:29:56.676Z,62.07
2017-10-19T08:32:24.224Z,54.13
2017-10-19T08:34:51.752Z,51.87
2017-10-19T08:37:20.407Z,53.70
2017-10-19T08:39:47.927Z,52.03
2017-10-19T08:42:15.460Z,54.33
2017-10-19T08:44:43.004Z,45.37
2017-10-19T08:47:10.566Z,55.40
2017-10-19T08:49:38.382Z,47.80
2017-10-19T08:52:05.892Z,50.93
2017-10-19T08:54:33.415Z,43.80
2017-10-19T08:57:00.939Z,43.00
2017-10-19T08:59:29.219Z,40.80
2017-10-19T09:01:57.807Z,40.17
2017-10-19T09:04:26.116Z,38.97
2017-10-19T09:06:53.634Z,35.57
2017-10-19T09:09:21.955Z,40.57
2017-10-19T09:11:50.245Z,36.10
2017-10-19T09:14:17.814Z,37.13
2017-10-19T09:16:45.323Z,38.20
2017-10-19T09:19:13.620Z,35.37
2017-10-19T09:21:41.158Z,38.87
2017-10-19T09:24:09.434Z,30.77
2017-10-19T09:26:37.998Z,37.87
2017-10-19T09:29:05.518Z,31.53
2017-10-19T09:31:33.024Z,29.87
2017-10-19T09:34:00.567Z,28.63
2017-10-19T09:36:28.066Z,29.97
2017-10-19T09:38:56.640Z,29.20
2017-10-19T09:41:24.919Z,23.30
2017-10-19T09:43:53.207Z,22.57
2017-10-19T09:46:21.516Z,29.23
2017-10-19T09:48:49.099Z,27.50
2017-10-19T09:51:16.646Z,30.13
2017-10-19T09:53:44.175Z,28.40
2017-10-19T09:56:11.704Z,26.13
2017-10-19T09:58:40.024Z,26.60
2017-10-19T10:01:07.540Z,28.53
2017-10-19T10:03:35.087Z,21.70
2017-10-19T10:06:02.600Z,21.60
2017-10-19T10:08:30.132Z,25.43
2017-10-19T10:10:58.418Z,22.80
2017-10-19T10:13:26.726Z,22.40
2017-10-19T10:15:54.229Z,22.07
2017-10-19T10:18:21.832Z,28.03
2017-10-19T10:20:49.361Z,20.60
2017-10-19T10:23:17.692Z,23.00
2017-10-19T10:25:45.239Z,20.77
2017-10-19T10:28:12.783Z,23.60
2017-10-19T10:30:40.330Z,25.37
2017-10-19T10:33:08.619Z,20.37
2017-10-19T10:35:36.174Z,23.37
2017-10-19T10:38:04.450Z,23.70
2017-10-19T10:40:32.862Z,22.87
2017-10-19T10:43:00.369Z,22.17
2017-10-19T10:45:27.947Z,20.77
2017-10-19T10:47:56.229Z,18.10
2017-10-19T10:50:24.567Z,20.40
2017-10-19T10:52:52.111Z,18.67
2017-10-19T10:55:19.671Z,20.67
2017-10-19T10:57:47.186Z,18.20
2017-10-19T11:00:15.507Z,17.90
2017-10-19T11:02:43.026Z,17.27
2017-10-19T11:05:11.347Z,19.93
2017-10-19T11:07:38.870Z,17.87
2017-10-19T11:10:06.429Z,27.93
2017-10-19T11:12:33.959Z,19.17
2017-10-19T11:15:01.520Z,17.20
2017-10-19T11:17:29.048Z,16.17
2017-10-19T11:19:56.680Z,19.30
2017-10-19T11:22:24.222Z,16.10
2017-10-19T11:24:52.530Z,15.57
2017-10-19T11:27:20.070Z,15.10
2017-10-19T11:29:48.401Z,21.23
2017-10-19T11:32:15.916Z,14.67
2017-10-19T11:34:43.464Z,14.83
2017-10-19T11:37:11.753Z,14.00
2017-10-19T11:39:39.559Z,16.00
2017-10-19T11:42:07.068Z,13.20
2017-10-19T11:44:34.598Z,12.70
2017-10-19T11:47:02.159Z,13.40
2017-10-19T11:49:29.697Z,12.83
2017-10-19T11:51:57.263Z,12.90
2017-10-19T11:54:24.820Z,11.97
2017-10-19T11:56:52.383Z,12.57
2017-10-19T11:59:19.924Z,11.97
2017-10-19T12:01:47.477Z,14.17
2017-10-19T12:04:15.017Z,12.80
2017-10-19T12:06:43.345Z,14.03
2017-10-19T12:09:10.933Z,11.67
2017-10-19T12:11:38.443Z,13.40
2017-10-19T12:14:05.962Z,12.80
2017-10-19T12:16:34.285Z,12.50
2017-10-19T12:19:01.835Z,13.37
2017-10-19T12:21:29.387Z,14.50
2017-10-19T12:23:56.910Z,12.80
2017-10-19T12:26:24.440Z,13.00
2017-10-19T12:28:51.958Z,12.93
2017-10-19T12:31:19.526Z,13.20
2017-10-19T12:33:47.043Z,15.13
2017-10-19T12:36:14.578Z,13.87
2017-10-19T12:38:42.115Z,14.63
2017-10-19T12:41:09.983Z,14.20
2017-10-19T12:43:37.523Z,13.97
2017-10-19T12:46:05.057Z,13.53
2017-10-19T12:48:32.606Z,15.47
2017-10-19T12:51:00.119Z,14.63
2017-10-19T12:53:28.336Z,14.77
2017-10-19T12:55:55.869Z,15.07
2017-10-19T12:58:23.371Z,13.70
2017-10-19T13:00:50.926Z,14.40
2017-10-19T13:03:18.762Z,16.00
2017-10-19T13:05:46.287Z,15.40
2017-10-19T13:08:13.815Z,16.23
2017-10-19T13:10:41.381Z,15.17
2017-10-19T13:13:09.035Z,14.70
2017-10-19T13:15:36.770Z,17.20
2017-10-19T13:18:04.702Z,16.50
2017-10-19T13:20:32.233Z,17.47
2017-10-19T13:23:00.824Z,18.33
2017-10-19T13:25:29.233Z,17.03
2017-10-19T13:27:56.767Z,18.27
2017-10-19T13:30:25.165Z,19.50
2017-10-19T13:32:54.283Z,18.70
2017-10-19T13:35:21.881Z,21.60
2017-10-19T13:37:49.441Z,17.07
2017-10-19T13:40:17.106Z,19.70
2017-10-19T13:42:45.583Z,19.80
2017-10-19T13:45:13.173Z,21.60
2017-10-19T13:47:40.717Z,19.30
2017-10-19T13:50:09.039Z,20.87
2017-10-19T13:52:37.091Z,20.97
2017-10-19T13:55:05.688Z,24.47
2017-10-19T13:57:34.339Z,22.10
2017-10-19T14:00:01.860Z,23.53
2017-10-19T14:02:29.692Z,21.40
2017-10-19T14:04:58.158Z,26.13
2017-10-19T14:07:25.745Z,25.80
2017-10-19T14:09:54.193Z,22.93
2017-10-19T14:12:21.742Z,23.50
2017-10-19T14:14:49.290Z,21.87
2017-10-19T14:17:16.889Z,27.27
2017-10-19T14:19:44.603Z,23.50
2017-10-19T14:22:12.336Z,24.27
2017-10-19T14:24:40.767Z,27.37
2017-10-19T14:27:08.460Z,22.63
2017-10-19T14:29:36.054Z,26.17
2017-10-19T14:32:04.063Z,25.70
2017-10-19T14:34:31.706Z,25.00
2017-10-19T14:37:00.110Z,23.50
2017-10-19T14:39:27.908Z,24.17
2017-10-19T14:41:55.460Z,27.60
2017-10-19T14:44:23.094Z,31.50
2017-10-19T14:46:50.760Z,25.30
2017-10-19T14:49:18.412Z,27.83
2017-10-19T14:51:46.134Z,26.00
2017-10-19T14:54:14.639Z,28.90
2017-10-19T14:56:43.110Z,29.40
2017-10-19T14:59:12.207Z,28.93
2017-10-19T15:01:41.956Z,29.13
2017-10-19T15:04:10.652Z,26.80
2017-10-19T15:06:38.250Z,25.60
2017-10-19T15:09:05.979Z,32.93
2017-10-19T15:11:33.619Z,28.40
2017-10-19T15:14:01.222Z,27.33
2017-10-19T15:16:29.047Z,28.30
2017-10-19T15:18:56.556Z,28.13
2017-10-19T15:21:24.065Z,27.80
2017-10-19T15:23:51.738Z,28.90
2017-10-19T15:26:19.430Z,29.10
2017-10-19T15:28:47.016Z,35.97
2017-10-19T15:31:14.572Z,29.27
2017-10-19T15:33:42.876Z,30.77
2017-10-19T15:36:13.121Z,35.57
2017-10-19T15:38:40.742Z,39.10
2017-10-19T15:41:09.131Z,29.80
2017-10-19T15:43:37.456Z,33.70
2017-10-19T15:46:06.698Z,34.37
2017-10-19T15:48:37.942Z,38.63
2017-10-19T15:51:14.262Z,31.77
2017-10-19T15:53:41.838Z,37.97
2017-10-19T15:56:09.394Z,40.83
2017-10-19T15:58:36.945Z,43.57
2017-10-19T16:01:04.498Z,34.90
2017-10-19T16:03:32.004Z,36.13
2017-10-19T16:05:59.887Z,37.40
2017-10-19T16:08:27.460Z,35.57
2017-10-19T16:10:54.986Z,36.60
2017-10-19T16:13:22.563Z,38.53
2017-10-19T16:15:50.881Z,36.20
2017-10-19T16:18:18.459Z,42.80
2017-10-19T16:20:45.998Z,37.33
2017-10-19T16:23:13.609Z,42.43
2017-10-19T16:25:41.126Z,41.60
2017-10-19T16:28:08.679Z,37.90
2017-10-19T16:30:36.211Z,39.53
2017-10-19T16:33:03.767Z,38.03
2017-10-19T16:35:32.058Z,38.60
2017-10-19T16:38:00.434Z,38.80
2017-10-19T16:40:28.737Z,36.03
2017-10-19T16:42:56.306Z,40.20
2017-10-19T16:45:23.858Z,40.70
2017-10-19T16:47:51.414Z,37.37
2017-10-19T16:50:18.959Z,43.47
2017-10-19T16:52:47.300Z,39.63
2017-10-19T16:55:15.668Z,40.63
2017-10-19T16:57:43.940Z,36.70
2017-10-19T17:00:12.678Z,44.77
2017-10-19T17:02:41.370Z,40.30
2017-10-19T17:05:10.766Z,41.93
2017-10-19T17:07:39.463Z,46.50
2017-10-19T17:10:07.975Z,48.13
2017-10-19T17:12:35.796Z,47.13
2017-10-19T17:15:03.365Z,43.87
2017-10-19T17:17:30.896Z,43.67
2017-10-19T17:19:58.746Z,48.23
2017-10-19T17:22:26.305Z,44.70
2017-10-19T17:24:53.892Z,46.20
2017-10-19T17:27:23.468Z,50.03
2017-10-19T17:29:51.238Z,46.13
2017-10-19T17:32:19.955Z,48.27
2017-10-19T17:34:47.862Z,51.10
2017-10-19T17:37:16.359Z,51.70
2017-10-19T17:39:44.548Z,47.40
2017-10-19T17:42:13.359Z,45.40
2017-10-19T17:44:41.723Z,47.77
2017-10-19T17:47:09.327Z,47.90
2017-10-19T17:49:37.388Z,45.80
2017-10-19T17:52:04.979Z,53.33
2017-10-19T17:54:33.443Z,52.30
2017-10-19T17:57:04.002Z,50.93
2017-10-19T17:59:34.424Z,47.80
2017-10-19T18:02:02.463Z,45.63
2017-10-19T18:04:31.693Z,57.10
2017-10-19T18:07:00.480Z,47.67
2017-10-19T18:09:29.316Z,45.33
2017-10-19T18:11:57.812Z,47.10
2017-10-19T18:14:26.680Z,48.73
2017-10-19T18:16:54.680Z,53.57
2017-10-19T18:19:23.645Z,47.07
2017-10-19T18:21:51.460Z,61.23
2017-10-19T18:24:19.091Z,57.07
2017-10-19T18:26:46.940Z,47.73
2017-10-19T18:29:15.433Z,51.60
2017-10-19T18:31:44.130Z,52.90
2017-10-19T18:34:12.785Z,51.97
2017-10-19T18:36:41.400Z,59.10
2017-10-19T18:39:09.454Z,47.30
2017-10-19T18:41:38.012Z,53.10
2017-10-19T18:44:05.991Z,53.03
2017-10-19T18:46:34.248Z,54.97
2017-10-19T18:49:03.810Z,55.73
2017-10-19T18:51:32.654Z,56.63
2017-10-19T18:54:00.747Z,63.73
2017-10-19T18:56:28.680Z,55.73
2017-10-19T18:58:57.020Z,51.60
2017-10-19T19:01:24.582Z,62.90
2017-10-19T19:08:10.167Z,56.70
2017-10-19T19:10:38.503Z,61.17
2017-10-19T19:13:06.194Z,59.87
2017-10-19T19:15:33.839Z,53.47
2017-10-19T19:18:01.698Z,61.40
2017-10-19T19:20:30.366Z,57.90
2017-10-19T19:22:58.092Z,50.77
2017-10-19T19:25:26.084Z,60.17
2017-10-19T19:27:53.627Z,55.30
2017-10-19T19:30:21.804Z,62.50
2017-10-19T19:32:49.366Z,55.57
2017-10-19T19:35:17.804Z,56.90
2017-10-19T19:37:46.126Z,55.07
2017-10-19T19:40:14.002Z,49.13
2017-10-19T19:42:41.535Z,52.73
2017-10-19T19:45:09.152Z,57.43
2017-10-19T19:47:36.717Z,65.23
2017-10-19T19:52:41.532Z,55.90
2017-10-19T19:55:10.340Z,59.13
2017-10-19T19:57:37.935Z,53.83
2017-10-19T20:00:07.163Z,56.50
2017-10-19T20:02:34.749Z,54.43
2017-10-19T20:05:02.300Z,59.30
2017-10-19T20:07:30.550Z,46.37
2017-10-19T20:09:58.167Z,52.43
2017-10-19T20:12:25.884Z,53.20
2017-10-19T20:14:53.867Z,56.57
2017-10-19T20:17:21.432Z,51.13
2017-10-19T20:19:49.009Z,56.30
2017-10-19T20:22:16.629Z,56.10
2017-10-19T20:24:44.384Z,45.80
2017-10-19T20:27:12.067Z,52.63
2017-10-19T20:29:39.640Z,50.03
2017-10-19T20:32:07.960Z,46.63
2017-10-19T20:34:35.509Z,56.73
2017-10-19T20:37:03.423Z,53.73
2017-10-19T20:39:30.946Z,49.57
2017-10-19T20:41:58.525Z,56.13
2017-10-19T20:44:26.342Z,55.77
2017-10-19T20:46:53.887Z,49.97
2017-10-19T20:49:21.475Z,51.00
2017-10-19T20:51:49.652Z,53.73
2017-10-19T20:54:17.320Z,54.93
2017-10-19T20:56:44.882Z,55.87
2017-10-19T20:59:12.839Z,49.80
2017-10-19T21:01:40.950Z,51.53
2017-10-19T21:04:08.514Z,54.20
2017-10-19T21:06:36.103Z,52.80
2017-10-19T21:09:03.632Z,53.17
2017-10-19T21:11:31.937Z,56.63
2017-10-19T21:13:59.761Z,49.57
2017-10-19T21:16:27.306Z,50.13
2017-10-19T21:18:54.865Z,50.93
2017-10-19T21:21:22.432Z,50.60
2017-10-19T21:23:49.947Z,51.23
2017-10-19T21:26:17.469Z,50.73
2017-10-19T21:28:46.131Z,52.10
2017-10-19T21:31:13.640Z,57.13
2017-10-19T21:33:41.962Z,53.37
2017-10-19T21:36:09.952Z,47.37
2017-10-19T21:38:37.485Z,53.53
2017-10-19T21:41:05.069Z,53.03
2017-10-19T21:43:32.660Z,51.53
2017-10-19T21:46:00.967Z,46.37
2017-10-19T21:48:28.536Z,44.10
2017-10-19T21:50:56.386Z,51.67
2017-10-19T21:53:23.950Z,50.50
2017-10-19T21:55:51.599Z,45.53
2017-10-19T21:58:19.921Z,46.70
2017-10-19T22:00:48.211Z,47.20
2017-10-19T22:03:15.729Z,46.53
2017-10-19T22:05:43.568Z,51.50
2017-10-19T22:08:11.139Z,47.53
2017-10-19T22:10:39.422Z,48.70
2017-10-19T22:13:08.571Z,46.13
2017-10-19T22:15:36.096Z,47.37
2017-10-19T22:18:03.637Z,50.60
2017-10-19T22:20:31.446Z,45.40
2017-10-19T22:22:58.962Z,47.80
2017-10-19T22:25:27.261Z,52.90
2017-10-19T22:27:55.257Z,50.20
2017-10-19T22:30:22.795Z,50.50
2017-10-19T22:32:50.306Z,48.97
2017-10-19T22:35:17.876Z,46.67
2017-10-19T22:37:45.388Z,54.97
2017-10-19T22:40:12.966Z,46.10
2017-10-19T22:42:40.531Z,44.87
2017-10-19T22:45:08.038Z,44.30
2017-10-19T22:47:36.327Z,44.70
2017-10-19T22:50:04.148Z,44.47
2017-10-19T22:52:31.669Z,48.10
2017-10-19T22:54:59.202Z,52.90
2017-10-19T22:57:27.529Z,46.53
2017-10-19T22:59:55.035Z,48.57
2017-10-19T23:02:23.316Z,47.50
2017-10-19T23:04:50.870Z,44.03
2017-10-19T23:07:19.169Z,45.43
2017-10-19T23:09:46.690Z,53.37
2017-10-19T23:12:14.308Z,47.30
2017-10-19T23:14:41.846Z,46.00
2017-10-19T23:17:09.399Z,48.63
2017-10-19T23:19:37.982Z,48.23
2017-10-19T23:22:06.328Z,54.73
2017-10-19T23:24:33.849Z,50.00
2017-10-19T23:27:01.664Z,48.13
2017-10-19T23:29:29.187Z,54.03
2017-10-19T23:31:56.707Z,51.00
2017-10-19T23:34:24.522Z,48.77
2017-10-19T23:36:52.026Z,52.60
2017-10-19T23:39:20.341Z,48.80
2017-10-19T23:41:48.163Z,54.10
2017-10-19T23:44:16.455Z,52.10
2017-10-19T23:46:44.728Z,49.93
2017-10-19T23:49:13.322Z,52.20
2017-10-19T23:51:41.606Z,53.63
2017-10-19T23:54:09.127Z,56.20
2017-10-19T23:56:37.042Z,53.93
2017-10-19T23:59:04.552Z,48.50
